createdAt,value
2023-03-31T00:04:14.171Z,99824.75
2023-03-31T00:09:21.941Z,99829.38
2023-03-31T00:14:24.881Z,99822.59
2023-03-31T00:19:29.095Z,99817.78
2023-03-31T00:24:34.158Z,99822.19
2023-03-31T00:29:37.161Z,99812.91
2023-03-31T00:34:40.799Z,99811.47
2023-03-31T00:39:44.961Z,99804.84
2023-03-31T00:45:23.279Z,99796.75
2023-03-31T00:50:29.130Z,99788.84
2023-03-31T00:55:37.926Z,99789.63
2023-03-31T01:00:41.212Z,99777.25
2023-03-31T01:05:47.252Z,99770.38
2023-03-31T01:10:54.510Z,99764.59
2023-03-31T01:15:57.327Z,99751.19
2023-03-31T01:21:39.772Z,99744.22
2023-03-31T01:27:02.687Z,99744.44
2023-03-31T01:32:41.289Z,99744.72
2023-03-31T01:38:19.356Z,99740.56
2023-03-31T01:43:27.769Z,99725.66
2023-03-31T01:48:35.102Z,99716.34
2023-03-31T01:53:50.094Z,99724.81
2023-03-31T01:59:00.273Z,99717.66
2023-03-31T02:04:11.052Z,99715.06
2023-03-31T02:09:18.049Z,99710.69
2023-03-31T02:14:25.114Z,99698.16
2023-03-31T02:19:33.276Z,99688.47
2023-03-31T02:24:39.357Z,99684.78
2023-03-31T02:29:43.800Z,99669.38
2023-03-31T02:34:46.865Z,99671.75
2023-03-31T02:39:53.493Z,99667.56
2023-03-31T02:45:03.823Z,99664.91
2023-03-31T02:50:08.206Z,99652.59
2023-03-31T02:55:30.605Z,99646.44
2023-03-31T03:00:52.275Z,99642.22
2023-03-31T03:06:05.763Z,99640.81
2023-03-31T03:11:37.281Z,99628.22
2023-03-31T03:16:46.193Z,99631.22
2023-03-31T03:21:49.103Z,99621.22
2023-03-31T03:26:51.942Z,99604.38
2023-03-31T03:31:56.464Z,99600.50
2023-03-31T03:36:59.652Z,99604.38
2023-03-31T03:42:02.419Z,99597.06
2023-03-31T03:47:06.798Z,99596.97
2023-03-31T03:52:09.613Z,99589.81
2023-03-31T03:57:12.375Z,99585.00
2023-03-31T04:02:16.834Z,99571.50
2023-03-31T04:07:19.744Z,99573.00
2023-03-31T04:12:22.509Z,99565.59
2023-03-31T04:17:32.816Z,99558.56
2023-03-31T04:22:40.772Z,99554.63
2023-03-31T04:27:46.695Z,99545.78
2023-03-31T04:32:53.375Z,99532.84
2023-03-31T04:37:59.025Z,99526.63
2023-03-31T04:43:02.179Z,99527.09
2023-03-31T04:48:06.923Z,99504.59
2023-03-31T04:53:10.261Z,99497.88
2023-03-31T04:58:12.989Z,99496.88
2023-03-31T05:03:17.289Z,99488.59
2023-03-31T05:08:21.128Z,99475.38
2023-03-31T05:13:23.883Z,99464.09
2023-03-31T05:18:27.953Z,99469.94
2023-03-31T05:23:30.855Z,99451.16
2023-03-31T05:28:33.660Z,99450.38
2023-03-31T05:33:42.103Z,99445.63
2023-03-31T05:38:45.800Z,99434.59
2023-03-31T05:43:48.611Z,99439.09
2023-03-31T05:48:52.762Z,99437.56
2023-03-31T05:53:58.483Z,99438.25
2023-03-31T05:59:01.867Z,99417.88
2023-03-31T06:04:06.012Z,99416.34
2023-03-31T06:09:09.042Z,99411.25
2023-03-31T06:14:11.778Z,99416.31
2023-03-31T06:19:16.765Z,99406.03
2023-03-31T06:24:19.642Z,99399.94
2023-03-31T06:29:22.628Z,99403.94
2023-03-31T06:34:27.104Z,99400.47
2023-03-31T06:39:30.095Z,99403.41
2023-03-31T06:44:32.839Z,99387.28
2023-03-31T06:49:36.947Z,99397.81
2023-03-31T06:54:39.706Z,99391.72
2023-03-31T06:59:42.566Z,99381.25
2023-03-31T07:04:46.660Z,99385.56
2023-03-31T07:09:49.479Z,99377.50
2023-03-31T07:14:52.242Z,99368.84
2023-03-31T07:19:56.594Z,99360.88
2023-03-31T07:24:59.298Z,99370.41
2023-03-31T07:30:02.233Z,99353.03
2023-03-31T07:35:07.009Z,99354.91
2023-03-31T07:40:11.616Z,99355.94
2023-03-31T07:45:14.565Z,99360.81
2023-03-31T07:50:21.116Z,99339.84
2023-03-31T07:55:27.345Z,99348.47
2023-03-31T08:00:30.158Z,99338.84
2023-03-31T08:05:34.308Z,99324.78
2023-03-31T08:10:37.066Z,99320.75
2023-03-31T08:15:39.986Z,99313.75
2023-03-31T08:20:44.387Z,99314.78
2023-03-31T08:25:47.312Z,99306.19
2023-03-31T08:30:50.091Z,99298.19
2023-03-31T08:35:54.248Z,99296.94
2023-03-31T08:41:00.941Z,99296.34
2023-03-31T08:46:05.700Z,99293.13
2023-03-31T08:51:17.760Z,99283.84
2023-03-31T08:56:23.676Z,99279.13
2023-03-31T09:01:47.833Z,99269.28
2023-03-31T09:07:08.601Z,99270.16
2023-03-31T09:12:15.802Z,99256.91
2023-03-31T09:17:25.625Z,99260.06
2023-03-31T09:22:33.996Z,99244.44
2023-03-31T09:27:37.474Z,99232.41
2023-03-31T09:32:40.916Z,99239.63
2023-03-31T09:37:45.349Z,99216.94
2023-03-31T09:42:50.752Z,99218.63
2023-03-31T09:47:55.921Z,99213.84
2023-03-31T09:53:01.936Z,99211.00
2023-03-31T09:58:08.464Z,99195.38
2023-03-31T10:03:14.790Z,99196.94
2023-03-31T10:08:31.880Z,99188.03
2023-03-31T10:13:42.362Z,99180.56
2023-03-31T10:18:45.159Z,99174.28
2023-03-31T10:23:51.297Z,99178.41
2023-03-31T10:28:55.486Z,99175.41
2023-03-31T10:33:59.626Z,99170.34
2023-03-31T10:39:08.562Z,99158.13
2023-03-31T10:44:33.019Z,99154.34
2023-03-31T10:49:40.111Z,99150.28
2023-03-31T10:54:49.143Z,99144.09
2023-03-31T11:00:13.177Z,99139.50
2023-03-31T11:05:25.450Z,99140.28
2023-03-31T11:10:48.056Z,99130.13
2023-03-31T11:16:01.807Z,99120.53
2023-03-31T11:21:16.963Z,99118.03
2023-03-31T11:26:28.301Z,99120.19
2023-03-31T11:31:47.696Z,99108.34
2023-03-31T11:37:09.153Z,99109.66
2023-03-31T11:42:17.588Z,99112.16
2023-03-31T11:47:23.677Z,99096.53
2023-03-31T11:52:30.492Z,99098.59
2023-03-31T11:57:40.334Z,99094.25
2023-03-31T12:02:50.264Z,99087.66
2023-03-31T12:08:00.591Z,99082.25
2023-03-31T12:13:21.976Z,99075.94
2023-03-31T12:18:27.735Z,99081.09
2023-03-31T12:23:34.856Z,99070.34
2023-03-31T12:28:40.996Z,99059.47
2023-03-31T12:33:47.244Z,99064.09
2023-03-31T12:39:04.832Z,99057.06
2023-03-31T12:44:25.413Z,99051.44
2023-03-31T12:49:40.989Z,99049.72
2023-03-31T12:55:05.979Z,99036.34
2023-03-31T13:00:26.049Z,99030.94
2023-03-31T13:05:49.155Z,99017.22
2023-03-31T13:10:57.450Z,99011.63
2023-03-31T13:16:02.558Z,99013.38
2023-03-31T13:21:07.881Z,99002.00
2023-03-31T13:26:38.741Z,99002.56
2023-03-31T13:32:08.376Z,98989.00
2023-03-31T13:37:20.904Z,98991.16
2023-03-31T13:42:53.079Z,98984.38
2023-03-31T13:48:12.434Z,98980.03
2023-03-31T13:53:31.058Z,98980.53
2023-03-31T13:58:39.435Z,98974.81
2023-03-31T14:03:59.396Z,98973.19
2023-03-31T14:09:06.556Z,98966.19
2023-03-31T14:14:15.542Z,98965.34
2023-03-31T14:19:34.887Z,98963.56
2023-03-31T14:24:44.606Z,98964.47
2023-03-31T14:29:57.925Z,98967.94
2023-03-31T14:35:23.698Z,98967.06
2023-03-31T14:40:26.902Z,98966.19
2023-03-31T14:45:34.330Z,98958.19
2023-03-31T14:50:38.749Z,98953.94
2023-03-31T14:55:57.257Z,98949.56
2023-03-31T15:01:02.199Z,98957.25
2023-03-31T15:06:07.225Z,98955.22
2023-03-31T15:11:16.524Z,98937.78
2023-03-31T15:16:22.777Z,98949.06
2023-03-31T15:21:28.727Z,98947.50
2023-03-31T15:26:41.260Z,98956.25
2023-03-31T15:31:44.952Z,98948.34
2023-03-31T15:36:49.336Z,98953.88
2023-03-31T15:41:52.507Z,98945.84
2023-03-31T15:47:02.840Z,98950.97
2023-03-31T15:52:21.828Z,98946.66
2023-03-31T15:57:33.027Z,98947.53
2023-03-31T16:02:46.417Z,98945.28
2023-03-31T16:07:50.845Z,98949.59
2023-03-31T16:12:59.135Z,98955.09
2023-03-31T16:18:04.232Z,98950.94
2023-03-31T16:23:17.035Z,98953.25
2023-03-31T16:28:23.982Z,98963.94
2023-03-31T16:33:26.732Z,98961.50
2023-03-31T16:38:30.922Z,98970.13
2023-03-31T16:43:33.838Z,98971.78
2023-03-31T16:48:36.778Z,98977.09
2023-03-31T16:53:41.079Z,98972.94
2023-03-31T16:58:45.170Z,98976.84
2023-03-31T17:03:48.764Z,98966.34
2023-03-31T17:08:52.994Z,98969.03
2023-03-31T17:13:56.788Z,98967.44
2023-03-31T17:18:59.506Z,98964.63
2023-03-31T17:24:03.675Z,98971.47
2023-03-31T17:29:06.885Z,98973.84
2023-03-31T17:34:10.235Z,98978.50
2023-03-31T17:39:14.348Z,98978.41
2023-03-31T17:44:17.079Z,98997.97
2023-03-31T17:49:19.810Z,99001.34
2023-03-31T17:54:24.142Z,98998.47
2023-03-31T17:59:27.511Z,99000.34
2023-03-31T18:04:30.232Z,98998.91
2023-03-31T18:09:35.091Z,99009.34
2023-03-31T18:14:38.256Z,99013.47
2023-03-31T18:19:41.012Z,99015.50
2023-03-31T18:24:45.117Z,99010.03
2023-03-31T18:29:47.811Z,99011.63
2023-03-31T18:34:50.794Z,99016.25
2023-03-31T18:39:54.959Z,99029.38
2023-03-31T18:44:57.738Z,99024.28
2023-03-31T18:50:01.183Z,99026.91
2023-03-31T18:55:05.985Z,99024.84
2023-03-31T19:00:10.453Z,99025.31
2023-03-31T19:05:13.574Z,99031.25
2023-03-31T19:10:18.302Z,99028.28
2023-03-31T19:15:22.700Z,99038.78
2023-03-31T19:20:25.481Z,99031.66
2023-03-31T19:25:29.997Z,99029.75
2023-03-31T19:30:33.148Z,99035.25
2023-03-31T19:35:35.933Z,99034.75
2023-03-31T19:40:40.616Z,99036.88
2023-03-31T19:45:43.448Z,99038.53
2023-03-31T19:50:48.675Z,99034.16
2023-03-31T19:56:00.685Z,99030.63
2023-03-31T20:01:05.083Z,99037.41
2023-03-31T20:06:09.864Z,99037.78
2023-03-31T20:11:16.157Z,99042.00
2023-03-31T20:16:21.334Z,99034.06
2023-03-31T20:21:27.248Z,99041.91
2023-03-31T20:26:32.485Z,99032.19
2023-03-31T20:31:37.402Z,99033.03
2023-03-31T20:36:41.323Z,99037.16
2023-03-31T20:41:45.828Z,99039.97
2023-03-31T20:46:48.605Z,99038.69
2023-03-31T20:51:51.388Z,99042.56
2023-03-31T20:56:55.495Z,99037.63
2023-03-31T21:01:58.515Z,99045.38
2023-03-31T21:07:01.469Z,99046.03
2023-03-31T21:12:06.299Z,99044.19
2023-03-31T21:17:09.633Z,99048.09
2023-03-31T21:22:12.503Z,99047.44
2023-03-31T21:27:16.668Z,99050.06
2023-03-31T21:32:19.818Z,99054.53
2023-03-31T21:37:23.288Z,99051.78
2023-03-31T21:42:27.697Z,99044.22
2023-03-31T21:47:30.494Z,99056.84
2023-03-31T21:52:33.362Z,99056.44
2023-03-31T21:57:37.832Z,99057.53
2023-03-31T22:02:40.652Z,99059.78
2023-03-31T22:07:43.466Z,99060.84
2023-03-31T22:12:47.575Z,99058.03
2023-03-31T22:17:50.796Z,99063.13
2023-03-31T22:22:53.584Z,99059.78
2023-03-31T22:27:57.715Z,99067.31
2023-03-31T22:33:00.479Z,99069.53
2023-03-31T22:38:03.716Z,99068.38
2023-03-31T22:43:09.760Z,99069.13
2023-03-31T22:48:13.870Z,99071.94
2023-03-31T22:53:16.735Z,99075.25
2023-03-31T22:58:21.475Z,99082.03
2023-03-31T23:03:24.295Z,99074.50
2023-03-31T23:08:27.111Z,99083.50
2023-03-31T23:13:31.877Z,99079.94
2023-03-31T23:18:35.361Z,99086.63
2023-03-31T23:23:38.112Z,99086.03
2023-03-31T23:28:42.575Z,99079.50
2023-03-31T23:33:45.725Z,99086.28
2023-03-31T23:38:50.527Z,99081.66
2023-03-31T23:43:55.877Z,99096.50
2023-03-31T23:48:58.663Z,99093.63
2023-03-31T23:54:01.376Z,99091.47
2023-03-31T23:59:05.500Z,99080.84
